Time;durP1;ratioP1;P1;durP2;ratioP2;P2;SDS_P1;SDS_P2;PMS_P1;PMS_P2;Temp;Humidity;BMP_temperature;BMP_pressure;BME280_temperature;BME280_humidity;BME280_pressure;Samples;Min_cycle;Max_cycle;Signal;HPM_P1;HPM_P2
2023/05/25 00:01:15;;;;;;;16.08;2.10;;;12.80;99.90;;;;;;5095534;27;20062;-71
2023/05/25 00:03:41;;;;;;;7.78;1.58;;;12.80;99.90;;;;;;5097488;27;20401;-71
2023/05/25 00:06:06;;;;;;;13.15;2.22;;;12.80;99.90;;;;;;5093524;28;20043;-71
2023/05/25 00:08:32;;;;;;;9.82;1.90;;;12.90;99.90;;;;;;5093589;28;20392;-70
2023/05/25 00:11:01;;;;;;;13.98;1.88;;;12.80;99.90;;;;;;5090881;28;20522;-71
2023/05/25 00:13:26;;;;;;;11.55;2.33;;;12.80;99.90;;;;;;5091632;28;20130;-70
2023/05/25 00:15:52;;;;;;;12.90;2.85;;;12.80;99.90;;;;;;5097356;27;20110;-72
2023/05/25 00:18:17;;;;;;;9.43;1.92;;;12.70;99.90;;;;;;5092759;28;20032;-71
2023/05/25 00:20:46;;;;;;;6.03;1.95;;;12.70;99.90;;;;;;5092434;28;20028;-71
2023/05/25 00:23:15;;;;;;;8.65;1.30;;;12.60;99.90;;;;;;5090710;28;20036;-71
2023/05/25 00:25:49;;;;;;;6.65;1.63;;;12.60;99.90;;;;;;5092376;28;20894;-70
2023/05/25 00:28:17;;;;;;;13.77;2.55;;;12.50;99.90;;;;;;5087571;28;20103;-71
2023/05/25 00:30:43;;;;;;;8.70;1.55;;;12.50;99.90;;;;;;5089545;28;20030;-70
2023/05/25 00:33:09;;;;;;;7.70;2.33;;;12.40;99.90;;;;;;5089277;28;20081;-72
2023/05/25 00:35:34;;;;;;;5.15;1.90;;;12.50;99.90;;;;;;5092055;28;20887;-71
2023/05/25 00:38:00;;;;;;;12.50;2.85;;;12.40;99.90;;;;;;5093087;28;20035;-71
2023/05/25 00:40:26;;;;;;;7.25;1.70;;;12.50;99.90;;;;;;5088303;28;20036;-70
2023/05/25 00:42:51;;;;;;;6.47;1.33;;;12.40;99.90;;;;;;5087876;28;20039;-70
2023/05/25 00:45:20;;;;;;;6.88;1.60;;;12.30;99.90;;;;;;5091208;28;20118;-70
2023/05/25 00:47:51;;;;;;;8.93;1.50;;;12.30;99.90;;;;;;5086945;28;20491;-71
2023/05/25 00:50:21;;;;;;;8.70;1.85;;;12.30;99.90;;;;;;5125536;27;20036;-71
2023/05/25 00:52:48;;;;;;;6.50;1.40;;;12.20;99.90;;;;;;5085358;28;20036;-71
2023/05/25 00:55:17;;;;;;;5.80;1.70;;;12.10;99.90;;;;;;5090941;28;20032;-72
2023/05/25 00:57:46;;;;;;;8.05;1.63;;;12.00;99.90;;;;;;5086181;28;20064;-70
2023/05/25 01:00:14;;;;;;;7.13;1.45;;;11.90;99.90;;;;;;5092567;28;20047;-70
2023/05/25 01:02:42;;;;;;;5.38;1.42;;;11.90;99.90;;;;;;5095435;28;20035;-71
2023/05/25 01:05:09;;;;;;;8.85;1.73;;;11.90;99.90;;;;;;5092048;28;20123;-71
2023/05/25 01:07:42;;;;;;;8.23;1.63;;;11.90;99.90;;;;;;5095087;28;20404;-72
2023/05/25 01:10:10;;;;;;;4.40;1.67;;;11.90;99.90;;;;;;5093158;28;20135;-71
2023/05/25 01:12:40;;;;;;;10.93;2.25;;;11.80;99.90;;;;;;5095237;28;20040;-70
2023/05/25 01:15:07;;;;;;;10.18;2.55;;;11.80;99.90;;;;;;5090359;28;20074;-72
2023/05/25 01:17:36;;;;;;;7.90;2.20;;;11.80;99.90;;;;;;5089682;28;20064;-71
2023/05/25 01:20:06;;;;;;;5.22;1.77;;;11.70;99.90;;;;;;5088057;28;20028;-74
2023/05/25 01:22:39;;;;;;;6.85;1.52;;;11.70;99.90;;;;;;5094028;28;20558;-71
2023/05/25 01:25:44;;;;;;;6.82;1.73;;;11.60;99.90;;;;;;5092219;28;20038;-71
2023/05/25 01:28:29;;;;;;;5.78;1.92;;;11.60;99.90;;;;;;5092786;28;20403;-73
2023/05/25 01:30:56;;;;;;;6.35;1.52;;;11.50;99.90;;;;;;5088129;28;20059;-72
2023/05/25 01:33:22;;;;;;;10.18;1.70;;;11.50;99.90;;;;;;5090643;28;20119;-71
2023/05/25 01:35:49;;;;;;;5.03;1.80;;;11.40;99.90;;;;;;5090669;28;20055;-71
2023/05/25 01:38:16;;;;;;;7.05;1.60;;;11.40;99.90;;;;;;5092761;28;20024;-73
2023/05/25 01:40:42;;;;;;;13.50;1.42;;;11.30;99.90;;;;;;5091477;28;20060;-71
2023/05/25 01:43:07;;;;;;;5.55;1.65;;;11.30;99.90;;;;;;5091388;28;20059;-73
2023/05/25 01:45:34;;;;;;;6.68;1.73;;;11.20;99.90;;;;;;5093156;28;20036;-72
2023/05/25 01:48:23;;;;;;;6.55;1.98;;;11.20;99.90;;;;;;5093025;28;20508;-72
2023/05/25 01:51:01;;;;;;;7.47;1.45;;;11.10;99.90;;;;;;5087297;28;20496;-71
2023/05/25 01:53:42;;;;;;;10.48;1.92;;;11.00;99.90;;;;;;5092443;28;20131;-72
2023/05/25 01:56:10;;;;;;;10.40;2.75;;;11.00;99.90;;;;;;5097332;28;20044;-72
2023/05/25 01:58:41;;;;;;;6.78;1.52;;;11.00;99.90;;;;;;5096556;28;20036;-71
2023/05/25 02:01:09;;;;;;;8.82;1.60;;;10.90;99.90;;;;;;5092713;28;20504;-71
2023/05/25 02:03:39;;;;;;;9.52;2.50;;;10.90;99.90;;;;;;5096424;28;20059;-71
2023/05/25 02:06:06;;;;;;;;;;;10.80;99.90;;;;;;5092177;28;20051;-72
2023/05/25 02:08:31;;;;;;;9.75;2.30;;;10.80;99.90;;;;;;5097943;28;20371;-71
2023/05/25 02:10:57;;;;;;;4.25;1.70;;;10.90;99.90;;;;;;5096955;28;20103;-71
2023/05/25 02:13:25;;;;;;;5.30;1.50;;;10.90;99.90;;;;;;5094958;28;20028;-71
2023/05/25 02:15:51;;;;;;;5.55;1.60;;;10.90;99.90;;;;;;5099893;27;20036;-71
2023/05/25 02:18:17;;;;;;;4.90;1.77;;;10.90;99.90;;;;;;5096902;28;20488;-70
2023/05/25 02:20:46;;;;;;;5.72;1.75;;;10.80;99.90;;;;;;5097318;28;20024;-71
2023/05/25 02:23:12;;;;;;;5.03;1.55;;;10.90;99.90;;;;;;5096758;28;20760;-70
2023/05/25 02:25:37;;;;;;;9.60;2.60;;;10.80;99.90;;;;;;5095847;28;20036;-71
2023/05/25 02:28:03;;;;;;;6.55;1.92;;;10.90;99.90;;;;;;5099262;28;20026;-72
2023/05/25 02:30:28;;;;;;;9.60;2.33;;;10.80;99.90;;;;;;5096812;28;20510;-71
2023/05/25 02:32:55;;;;;;;11.43;2.58;;;10.80;99.90;;;;;;5095795;28;20035;-71
2023/05/25 02:35:21;;;;;;;7.28;1.88;;;10.80;99.90;;;;;;5089674;28;20382;-71
2023/05/25 02:37:46;;;;;;;6.85;1.75;;;10.70;99.90;;;;;;5093931;28;20042;-71
2023/05/25 02:40:13;;;;;;;4.90;2.05;;;10.70;99.90;;;;;;5094412;28;20042;-71
2023/05/25 02:42:39;;;;;;;10.20;2.10;;;10.70;99.90;;;;;;5098466;28;20043;-71
2023/05/25 02:45:09;;;;;;;3.78;1.50;;;10.60;99.90;;;;;;5094593;28;20040;-71
2023/05/25 02:47:34;;;;;;;7.55;1.85;;;10.60;99.90;;;;;;5094329;28;20035;-71
2023/05/25 02:50:04;;;;;;;6.55;2.08;;;10.60;99.90;;;;;;5094032;28;20032;-71
2023/05/25 02:52:30;;;;;;;4.18;1.55;;;10.50;99.90;;;;;;5097145;28;20094;-71
2023/05/25 02:54:56;;;;;;;7.15;2.10;;;10.50;99.90;;;;;;5086457;28;20641;-71
2023/05/25 02:57:22;;;;;;;9.10;1.90;;;10.50;99.90;;;;;;5094680;28;20035;-71
2023/05/25 02:59:48;;;;;;;8.07;1.63;;;10.40;99.90;;;;;;5096352;28;20028;-71
2023/05/25 03:02:13;;;;;;;4.78;1.35;;;10.40;99.90;;;;;;5096503;27;20552;-71
2023/05/25 03:04:45;;;;;;;6.38;2.00;;;10.40;99.90;;;;;;5095653;28;20143;-71
2023/05/25 03:07:11;;;;;;;5.13;1.90;;;10.40;99.90;;;;;;5116301;27;20040;-71
2023/05/25 03:09:37;;;;;;;6.28;1.67;;;10.30;99.90;;;;;;5095914;28;20032;-71
2023/05/25 03:12:03;;;;;;;5.57;2.22;;;10.30;99.90;;;;;;5091216;28;20051;-73
2023/05/25 03:14:28;;;;;;;5.93;1.58;;;10.30;99.90;;;;;;5088778;28;20043;-72
2023/05/25 03:16:54;;;;;;;14.15;3.00;;;10.30;99.90;;;;;;5093206;27;20036;-71
2023/05/25 03:19:23;;;;;;;5.55;2.00;;;10.30;99.90;;;;;;5095586;28;20054;-71
2023/05/25 03:21:48;;;;;;;7.15;2.10;;;10.20;99.90;;;;;;5087227;28;20425;-71
2023/05/25 03:24:14;;;;;;;8.75;2.30;;;10.20;99.90;;;;;;5086362;28;20039;-71
2023/05/25 03:26:42;;;;;;;8.10;1.90;;;10.20;99.90;;;;;;5088546;28;20033;-71
2023/05/25 03:29:11;;;;;;;9.43;2.08;;;10.20;99.90;;;;;;5090935;28;20047;-72
2023/05/25 03:31:36;;;;;;;7.03;1.85;;;10.20;99.90;;;;;;5091876;28;20039;-70
2023/05/25 03:34:02;;;;;;;13.27;2.67;;;10.20;99.90;;;;;;5091528;28;20032;-71
2023/05/25 03:36:32;;;;;;;7.53;2.78;;;10.20;99.90;;;;;;5092487;28;20051;-71
2023/05/25 03:39:00;;;;;;;8.35;1.95;;;10.20;99.90;;;;;;5090439;28;21408;-71
2023/05/25 03:41:29;;;;;;;5.82;1.85;;;10.10;99.90;;;;;;5092423;28;20067;-71
2023/05/25 03:43:54;;;;;;;8.52;2.30;;;10.10;99.90;;;;;;5088940;28;20666;-70
2023/05/25 03:46:20;;;;;;;4.57;1.92;;;10.00;99.90;;;;;;5086779;28;20132;-71
2023/05/25 03:48:52;;;;;;;5.00;1.70;;;10.00;99.90;;;;;;5095205;28;20089;-72
2023/05/25 03:51:17;;;;;;;5.15;1.80;;;9.90;99.90;;;;;;5092775;27;20032;-70
2023/05/25 03:53:49;;;;;;;6.28;2.38;;;9.90;99.90;;;;;;5092381;28;20047;-71
2023/05/25 03:56:15;;;;;;;7.32;2.17;;;9.90;99.90;;;;;;5091179;28;20372;-71
2023/05/25 03:58:40;;;;;;;10.13;2.50;;;9.90;99.90;;;;;;5087633;28;20032;-71
2023/05/25 04:01:11;;;;;;;11.02;2.30;;;9.90;99.90;;;;;;5086140;28;20050;-72
2023/05/25 04:03:42;;;;;;;6.95;2.08;;;9.90;99.90;;;;;;5092696;28;20059;-71
2023/05/25 04:06:08;;;;;;;5.68;2.25;;;9.90;99.90;;;;;;5083217;28;20503;-71
2023/05/25 04:08:33;;;;;;;6.93;1.80;;;9.90;99.90;;;;;;5087809;28;20044;-70
2023/05/25 04:10:59;;;;;;;15.60;2.88;;;10.00;99.90;;;;;;5088105;28;20442;-72
2023/05/25 04:13:28;;;;;;;8.70;2.35;;;10.00;99.90;;;;;;5093760;28;20208;-72
2023/05/25 04:15:54;;;;;;;9.38;2.35;;;10.00;99.90;;;;;;5093371;27;20042;-72
2023/05/25 04:18:20;;;;;;;12.70;2.85;;;10.00;99.90;;;;;;5087950;28;20035;-72
2023/05/25 04:20:46;;;;;;;8.35;2.30;;;10.10;99.90;;;;;;5088426;28;20141;-73
2023/05/25 04:23:11;;;;;;;8.38;2.22;;;10.10;99.90;;;;;;5093167;28;20029;-72
2023/05/25 04:25:44;;;;;;;7.65;2.28;;;10.20;99.90;;;;;;5087750;28;20036;-71
2023/05/25 04:28:11;;;;;;;8.02;2.45;;;10.20;99.90;;;;;;5088622;28;20836;-72
2023/05/25 04:30:36;;;;;;;10.23;2.33;;;10.20;99.90;;;;;;5085853;28;20036;-70
2023/05/25 04:33:02;;;;;;;9.48;3.17;;;10.20;99.90;;;;;;5088683;28;20088;-70
2023/05/25 04:35:28;;;;;;;11.00;2.58;;;10.30;99.90;;;;;;5089217;28;20036;-70
2023/05/25 04:37:53;;;;;;;8.30;2.45;;;10.30;99.90;;;;;;5094559;28;20032;-71
2023/05/25 04:40:21;;;;;;;10.38;2.70;;;10.40;99.90;;;;;;5089079;28;20476;-71
2023/05/25 04:42:47;;;;;;;7.50;1.80;;;10.40;99.90;;;;;;5087432;28;20131;-71
2023/05/25 04:45:16;;;;;;;7.82;1.92;;;10.40;99.90;;;;;;5087570;28;20063;-70
2023/05/25 04:47:42;;;;;;;10.55;2.70;;;10.40;99.90;;;;;;5089977;28;20024;-71
2023/05/25 04:50:09;;;;;;;9.50;3.65;;;10.40;99.90;;;;;;5089427;28;20051;-71
2023/05/25 04:52:38;;;;;;;9.50;2.00;;;10.50;99.90;;;;;;5087643;28;20389;-70
2023/05/25 04:55:04;;;;;;;11.52;1.92;;;10.50;99.90;;;;;;5089985;28;20043;-72
2023/05/25 04:57:30;;;;;;;6.38;2.00;;;10.60;99.90;;;;;;5083819;28;20104;-71
2023/05/25 04:59:58;;;;;;;8.18;1.95;;;10.70;99.90;;;;;;5090187;28;20032;-71
2023/05/25 05:02:25;;;;;;;12.48;2.28;;;10.70;99.90;;;;;;5087552;28;20070;-71
2023/05/25 05:04:53;;;;;;;7.00;2.67;;;10.80;99.90;;;;;;5086257;28;20517;-71
2023/05/25 05:07:20;;;;;;;7.90;2.40;;;10.80;99.90;;;;;;5088325;28;20115;-71
2023/05/25 05:09:46;;;;;;;6.57;2.00;;;10.90;99.90;;;;;;5086609;28;20046;-71
2023/05/25 05:12:11;;;;;;;6.90;1.85;;;11.00;99.90;;;;;;5086910;28;20031;-71
2023/05/25 05:14:37;;;;;;;6.50;2.10;;;11.00;99.90;;;;;;5086114;28;20663;-71
2023/05/25 05:17:03;;;;;;;10.93;2.10;;;11.10;99.90;;;;;;5091069;28;20694;-71
2023/05/25 05:19:28;;;;;;;6.53;2.28;;;11.20;99.90;;;;;;5083974;28;20035;-71
2023/05/25 05:21:55;;;;;;;11.32;1.80;;;11.20;99.90;;;;;;5083389;28;20035;-72
2023/05/25 05:24:20;;;;;;;9.00;1.95;;;11.30;99.90;;;;;;5091581;28;20874;-70
2023/05/25 05:26:46;;;;;;;5.63;1.92;;;11.40;99.90;;;;;;5089947;28;20044;-72
2023/05/25 05:29:12;;;;;;;13.27;2.33;;;11.50;99.90;;;;;;5085304;28;20032;-71
2023/05/25 05:31:37;;;;;;;10.75;2.35;;;11.70;99.90;;;;;;5091189;28;20032;-71
2023/05/25 05:34:05;;;;;;;7.90;1.83;;;11.70;99.90;;;;;;5087004;28;20055;-71
2023/05/25 05:36:37;;;;;;;13.25;2.83;;;11.80;99.90;;;;;;5085510;28;20040;-71
2023/05/25 05:39:03;;;;;;;6.88;1.73;;;12.10;99.90;;;;;;5085688;28;20656;-71
2023/05/25 05:41:28;;;;;;;9.77;1.77;;;12.50;99.90;;;;;;5088610;28;20085;-71
2023/05/25 05:43:54;;;;;;;7.97;1.67;;;12.90;99.90;;;;;;5089223;28;20035;-71
2023/05/25 05:46:22;;;;;;;7.75;2.28;;;13.40;99.90;;;;;;5093097;28;20060;-71
2023/05/25 05:48:48;;;;;;;8.63;2.10;;;13.90;99.90;;;;;;5093188;28;20403;-71
2023/05/25 05:51:13;;;;;;;6.65;1.70;;;14.50;99.90;;;;;;5096315;27;20468;-71
2023/05/25 05:53:39;;;;;;;9.85;2.03;;;14.90;99.90;;;;;;5092188;28;20492;-70
2023/05/25 05:56:05;;;;;;;11.30;2.05;;;15.20;99.90;;;;;;5092125;27;20036;-72
2023/05/25 05:58:34;;;;;;;11.68;2.03;;;15.50;99.90;;;;;;5096114;27;20032;-72
2023/05/25 06:01:03;;;;;;;7.95;2.15;;;15.90;99.90;;;;;;5090624;28;20027;-72
2023/05/25 06:03:28;;;;;;;8.93;2.00;;;16.30;99.90;;;;;;5085413;28;20066;-71
2023/05/25 06:05:54;;;;;;;18.70;2.55;;;16.90;99.90;;;;;;5095138;27;20023;-71
2023/05/25 06:08:20;;;;;;;11.68;2.15;;;17.40;99.90;;;;;;5094050;27;20035;-72
2023/05/25 06:10:45;;;;;;;7.78;1.73;;;18.30;99.90;;;;;;5091463;28;20051;-74
2023/05/25 06:13:11;;;;;;;4.78;1.70;;;19.00;99.90;;;;;;5095023;28;20111;-71
2023/05/25 06:15:36;;;;;;;6.80;1.65;;;20.10;99.90;;;;;;5092872;28;20108;-73
2023/05/25 06:18:02;;;;;;;9.55;2.78;;;21.20;99.30;;;;;;5090816;27;20063;-73
2023/05/25 06:20:34;;;;;;;8.80;2.38;;;21.80;97.80;;;;;;5089164;28;20032;-72
2023/05/25 06:23:00;;;;;;;8.60;2.20;;;22.10;97.80;;;;;;5092240;27;20620;-72
2023/05/25 06:25:26;;;;;;;5.30;1.88;;;22.70;96.80;;;;;;5092169;27;20040;-72
2023/05/25 06:27:51;;;;;;;6.53;2.17;;;22.90;95.90;;;;;;5088853;28;20036;-72
2023/05/25 06:30:17;;;;;;;7.72;2.47;;;23.40;94.20;;;;;;5096957;28;20566;-73
2023/05/25 06:32:42;;;;;;;7.43;2.20;;;23.70;93.80;;;;;;5091820;27;20603;-72
2023/05/25 06:35:08;;;;;;;9.93;2.53;;;23.70;93.50;;;;;;5088304;27;20028;-72
2023/05/25 06:37:36;;;;;;;10.27;2.40;;;23.80;93.30;;;;;;5096431;28;20059;-72
2023/05/25 06:40:04;;;;;;;10.13;2.03;;;24.30;93.00;;;;;;5090527;27;20063;-72
2023/05/25 06:42:32;;;;;;;5.80;2.25;;;25.00;92.20;;;;;;5087882;28;20044;-73
2023/05/25 06:44:58;;;;;;;5.47;1.92;;;25.00;91.80;;;;;;5089037;28;20032;-73
2023/05/25 06:47:23;;;;;;;7.15;1.90;;;25.60;91.50;;;;;;5092238;27;20032;-71
2023/05/25 06:49:49;;;;;;;5.78;2.17;;;25.30;91.20;;;;;;5088841;28;20039;-73
2023/05/25 06:52:15;;;;;;;4.95;2.00;;;25.10;90.50;;;;;;5090467;28;20377;-72
2023/05/25 06:54:40;;;;;;;5.55;2.35;;;25.40;90.80;;;;;;5085865;28;20036;-71
2023/05/25 06:57:06;;;;;;;6.80;2.22;;;25.00;90.00;;;;;;5087725;27;20968;-73
2023/05/25 06:59:32;;;;;;;6.30;2.17;;;24.30;90.60;;;;;;5089807;28;20527;-72
2023/05/25 07:01:59;;;;;;;7.43;2.22;;;24.30;91.10;;;;;;5092685;27;20132;-72
2023/05/25 07:04:27;;;;;;;4.45;1.88;;;24.10;90.90;;;;;;5084190;28;20064;-72
2023/05/25 07:06:53;;;;;;;10.10;2.38;;;23.40;91.50;;;;;;5082411;28;20081;-72
2023/05/25 07:09:19;;;;;;;6.90;2.03;;;23.00;91.90;;;;;;5090054;28;20042;-72
2023/05/25 07:11:47;;;;;;;6.95;2.05;;;22.60;92.60;;;;;;5089362;28;20540;-72
2023/05/25 07:14:13;;;;;;;5.40;1.88;;;22.40;93.10;;;;;;5087413;28;20805;-72
2023/05/25 07:16:39;;;;;;;7.20;1.88;;;22.40;92.90;;;;;;5088629;28;20075;-72
2023/05/25 07:19:07;;;;;;;4.15;1.20;;;22.40;93.40;;;;;;5086172;28;20162;-74
2023/05/25 07:21:33;;;;;;;3.60;1.05;;;21.80;93.10;;;;;;5085785;28;20040;-72
2023/05/25 07:23:59;;;;;;;3.47;1.20;;;21.70;93.60;;;;;;5084217;28;20042;-73
2023/05/25 07:26:29;;;;;;;3.20;1.40;;;21.60;94.30;;;;;;5086948;28;20454;-74
2023/05/25 07:28:54;;;;;;;4.10;1.30;;;21.50;93.40;;;;;;5085239;28;20646;-72
2023/05/25 07:31:21;;;;;;;2.72;1.10;;;21.20;94.00;;;;;;5082513;28;20039;-72
2023/05/25 07:33:46;;;;;;;3.45;1.15;;;21.10;94.40;;;;;;5086022;28;20043;-72
2023/05/25 07:36:12;;;;;;;2.55;0.80;;;21.50;93.90;;;;;;5090537;27;20036;-73
2023/05/25 07:38:38;;;;;;;9.38;1.85;;;21.80;93.80;;;;;;5084633;28;20043;-72
2023/05/25 07:41:03;;;;;;;2.78;0.93;;;22.30;93.10;;;;;;5083350;28;20028;-71
2023/05/25 07:43:29;;;;;;;3.58;1.63;;;23.10;93.30;;;;;;5084471;28;20048;-71
2023/05/25 07:45:55;;;;;;;2.80;0.88;;;24.20;91.30;;;;;;5084051;28;20067;-71
2023/05/25 07:48:20;;;;;;;6.13;1.63;;;24.30;90.50;;;;;;5085276;28;20788;-69
2023/05/25 07:50:46;;;;;;;6.18;1.55;;;23.30;91.10;;;;;;5081865;28;20041;-72
2023/05/25 07:53:11;;;;;;;2.15;1.17;;;22.40;92.00;;;;;;5084135;28;20021;-70
2023/05/25 07:55:40;;;;;;;3.28;1.15;;;21.80;92.70;;;;;;5083319;28;20044;-70
2023/05/25 07:58:06;;;;;;;4.00;1.35;;;20.90;93.20;;;;;;5085095;28;20036;-72
2023/05/25 08:00:32;;;;;;;3.03;0.70;;;20.30;94.50;;;;;;5088732;28;20038;-71
2023/05/25 08:02:57;;;;;;;4.55;0.68;;;20.00;94.90;;;;;;5084136;28;20870;-71
2023/05/25 08:05:23;;;;;;;4.05;0.98;;;20.40;94.90;;;;;;5088380;28;20040;-72
2023/05/25 08:07:49;;;;;;;2.47;0.77;;;20.40;94.10;;;;;;5087733;28;20089;-72
2023/05/25 08:10:15;;;;;;;2.35;0.60;;;20.50;94.20;;;;;;5085883;28;20381;-71
2023/05/25 08:12:40;;;;;;;2.75;0.70;;;20.80;94.40;;;;;;5088589;28;20036;-71
2023/05/25 08:15:06;;;;;;;4.60;1.20;;;20.80;93.90;;;;;;5088328;28;20036;-72
2023/05/25 08:17:32;;;;;;;4.28;1.27;;;20.90;94.60;;;;;;5086909;28;20994;-71
2023/05/25 08:19:57;;;;;;;1.92;0.65;;;21.00;93.80;;;;;;5088038;28;20089;-71
2023/05/25 08:22:23;;;;;;;2.50;0.65;;;21.20;94.10;;;;;;5088341;28;20126;-72
2023/05/25 08:24:49;;;;;;;4.47;0.80;;;21.00;93.30;;;;;;5087715;28;20372;-72
2023/05/25 08:27:15;;;;;;;8.65;1.15;;;20.80;93.00;;;;;;5087026;28;20036;-71
2023/05/25 08:29:40;;;;;;;2.65;0.85;;;20.80;93.70;;;;;;5090292;28;20062;-71
2023/05/25 08:32:07;;;;;;;5.40;1.00;;;20.30;93.90;;;;;;5088662;28;20060;-72
2023/05/25 08:34:33;;;;;;;3.55;0.93;;;20.20;93.90;;;;;;5087108;28;20048;-72
2023/05/25 08:36:58;;;;;;;2.45;1.13;;;19.90;94.20;;;;;;5089678;28;20040;-72
2023/05/25 08:39:24;;;;;;;3.50;1.10;;;19.70;94.10;;;;;;5090536;28;20777;-71
2023/05/25 08:41:53;;;;;;;2.58;0.70;;;19.60;95.10;;;;;;5086379;28;20043;-72
2023/05/25 08:44:20;;;;;;;3.65;0.75;;;19.40;95.10;;;;;;5084656;28;20107;-72
2023/05/25 08:46:48;;;;;;;6.22;0.90;;;19.20;95.20;;;;;;5089842;28;20047;-73
2023/05/25 08:49:14;;;;;;;6.63;0.85;;;18.90;95.60;;;;;;5088042;28;20031;-71
2023/05/25 08:51:51;;;;;;;7.28;1.25;;;18.80;95.90;;;;;;5086183;28;20111;-74
2023/05/25 08:54:28;;;;;;;2.88;0.70;;;18.70;96.60;;;;;;5112560;27;20464;-72
2023/05/25 08:57:07;;;;;;;4.70;1.17;;;18.80;96.50;;;;;;5086592;28;20089;-71
2023/05/25 08:59:45;;;;;;;2.20;0.80;;;19.00;95.80;;;;;;5083895;28;20048;-72
2023/05/25 09:02:45;;;;;;;2.15;0.60;;;18.90;95.70;;;;;;5083352;28;20412;-72
2023/05/25 09:05:17;;;;;;;4.40;0.85;;;18.60;95.30;;;;;;5117783;27;20059;-72
2023/05/25 09:07:43;;;;;;;4.72;1.27;;;18.40;96.10;;;;;;5090309;28;20039;-71
2023/05/25 09:10:10;;;;;;;6.38;1.08;;;18.20;96.50;;;;;;5085214;28;20035;-70
2023/05/25 09:12:37;;;;;;;1.77;0.70;;;18.10;96.20;;;;;;5083423;28;20036;-71
2023/05/25 09:15:03;;;;;;;6.47;1.00;;;18.30;96.20;;;;;;5087034;28;20623;-71
2023/05/25 09:17:29;;;;;;;4.72;0.98;;;18.70;95.60;;;;;;5092069;28;20048;-70
2023/05/25 09:19:55;;;;;;;5.65;1.05;;;19.10;94.60;;;;;;5089874;28;20039;-71
2023/05/25 09:22:21;;;;;;;2.85;0.57;;;19.40;94.20;;;;;;5092069;28;20496;-71
2023/05/25 09:24:47;;;;;;;2.05;0.65;;;19.70;92.00;;;;;;5092019;28;20114;-72
2023/05/25 09:27:17;;;;;;;2.72;0.60;;;20.10;92.00;;;;;;5084870;28;20111;-71
2023/05/25 09:29:43;;;;;;;;;;;20.30;91.40;;;;;;5090595;28;20036;-71
2023/05/25 09:32:09;;;;;;;4.63;1.10;;;20.10;91.40;;;;;;5091740;28;20670;-70
2023/05/25 09:34:34;;;;;;;2.03;0.82;;;19.80;91.90;;;;;;5089141;28;20040;-71
2023/05/25 09:37:02;;;;;;;2.08;0.57;;;19.60;92.30;;;;;;5090320;28;20108;-71
2023/05/25 09:39:31;;;;;;;3.83;0.85;;;19.30;93.40;;;;;;5090985;27;20567;-70
2023/05/25 09:41:57;;;;;;;5.88;1.40;;;19.00;94.80;;;;;;5092781;28;20040;-71
2023/05/25 09:44:23;;;;;;;7.13;1.45;;;18.80;95.10;;;;;;5087050;28;20032;-72
2023/05/25 09:46:48;;;;;;;3.88;1.20;;;18.70;95.90;;;;;;5092295;28;20048;-70
2023/05/25 09:49:20;;;;;;;7.60;1.90;;;18.60;95.70;;;;;;5091925;28;20035;-70
2023/05/25 09:51:46;;;;;;;5.88;1.08;;;18.90;96.10;;;;;;5088666;28;20079;-72
2023/05/25 09:54:13;;;;;;;3.67;1.10;;;19.40;95.60;;;;;;5086418;28;20486;-70
2023/05/25 09:56:42;;;;;;;5.47;0.80;;;19.50;94.60;;;;;;5093491;28;20066;-72
2023/05/25 09:59:07;;;;;;;7.47;1.10;;;19.60;94.80;;;;;;5091165;28;20032;-73
2023/05/25 10:01:34;;;;;;;6.03;1.92;;;19.50;95.10;;;;;;5090515;28;20047;-72
2023/05/25 10:04:02;;;;;;;5.65;1.25;;;19.30;95.10;;;;;;5095539;28;20138;-71
2023/05/25 10:06:28;;;;;;;8.07;1.10;;;19.30;95.40;;;;;;5093160;28;20028;-71
2023/05/25 10:08:59;;;;;;;5.75;1.33;;;19.30;95.70;;;;;;5087273;28;20679;-70
2023/05/25 10:11:26;;;;;;;4.65;1.20;;;19.20;95.60;;;;;;5084651;28;20853;-68
2023/05/25 10:13:54;;;;;;;6.90;0.82;;;19.00;96.00;;;;;;5091410;28;20601;-70
2023/05/25 10:16:24;;;;;;;4.13;0.95;;;19.00;96.50;;;;;;5087536;28;20703;-70
2023/05/25 10:18:55;;;;;;;3.90;0.98;;;18.90;96.20;;;;;;5084259;28;20032;-71
2023/05/25 10:21:23;;;;;;;7.43;1.70;;;18.80;96.70;;;;;;5088671;28;20488;-71
2023/05/25 10:23:53;;;;;;;5.15;1.60;;;18.80;96.90;;;;;;5087196;27;20035;-69
2023/05/25 10:26:22;;;;;;;7.07;1.70;;;18.70;96.90;;;;;;5090584;28;20123;-72
2023/05/25 10:28:55;;;;;;;5.60;1.25;;;18.80;97.10;;;;;;5094504;28;20032;-71
2023/05/25 10:31:21;;;;;;;6.57;1.15;;;18.80;97.50;;;;;;5092476;28;20043;-72
2023/05/25 10:33:50;;;;;;;5.55;1.20;;;18.90;97.60;;;;;;5089015;27;20066;-72
2023/05/25 10:36:17;;;;;;;8.40;1.55;;;18.90;97.00;;;;;;5092215;27;20036;-72
2023/05/25 10:38:43;;;;;;;4.03;1.52;;;18.80;97.10;;;;;;5085608;28;20028;-71
2023/05/25 10:41:10;;;;;;;7.05;1.70;;;18.60;97.60;;;;;;5084890;28;20027;-72
2023/05/25 10:43:37;;;;;;;4.43;1.23;;;18.40;97.60;;;;;;5090365;27;20789;-71
2023/05/25 10:46:05;;;;;;;7.35;1.58;;;18.30;97.90;;;;;;5087723;28;20055;-71
2023/05/25 10:48:38;;;;;;;5.28;1.25;;;18.20;98.40;;;;;;5093418;27;20559;-71
2023/05/25 10:51:04;;;;;;;8.15;1.20;;;18.20;98.40;;;;;;5090178;28;20043;-71
2023/05/25 10:53:30;;;;;;;3.67;1.30;;;18.20;98.70;;;;;;5092089;28;20092;-71
2023/05/25 10:55:58;;;;;;;8.45;1.48;;;18.30;98.30;;;;;;5093396;28;20661;-71
2023/05/25 10:58:27;;;;;;;12.38;2.45;;;18.30;98.10;;;;;;5083869;28;20060;-71
2023/05/25 11:01:05;;;;;;;2.88;1.40;;;18.30;98.40;;;;;;5086449;28;20113;-73
2023/05/25 11:04:14;;;;;;;4.43;1.40;;;18.30;98.00;;;;;;5088178;28;20124;-72
2023/05/25 11:06:39;;;;;;;9.50;1.55;;;18.40;97.90;;;;;;5086719;28;20023;-71
2023/05/25 11:09:05;;;;;;;4.15;1.30;;;18.40;97.80;;;;;;5085038;28;20044;-74
2023/05/25 11:11:47;;;;;;;5.45;1.30;;;18.50;98.10;;;;;;5086464;28;20032;-72
2023/05/25 11:14:26;;;;;;;6.13;1.83;;;18.70;97.30;;;;;;5084652;28;20089;-72
2023/05/25 11:17:12;;;;;;;4.07;1.10;;;19.00;96.40;;;;;;5084352;28;20040;-71
2023/05/25 11:19:53;;;;;;;5.78;1.23;;;19.10;96.10;;;;;;5085066;28;20107;-71
2023/05/25 11:22:45;;;;;;;12.50;1.70;;;19.10;96.00;;;;;;5089314;28;20587;-71
2023/05/25 11:25:38;;;;;;;4.32;1.27;;;19.10;96.20;;;;;;5081024;28;20039;-71
2023/05/25 11:28:09;;;;;;;4.03;1.17;;;18.90;96.50;;;;;;5090253;27;20027;-71
2023/05/25 11:30:37;;;;;;;5.68;1.48;;;18.90;97.00;;;;;;5092674;28;20032;-71
2023/05/25 11:33:03;;;;;;;4.32;1.58;;;18.90;96.60;;;;;;5086826;28;20492;-72
2023/05/25 11:35:32;;;;;;;7.38;1.83;;;18.80;96.50;;;;;;5084752;28;20044;-72
2023/05/25 11:37:59;;;;;;;6.80;1.20;;;18.90;96.50;;;;;;5091055;28;20036;-71
2023/05/25 11:40:28;;;;;;;6.10;1.33;;;18.90;97.00;;;;;;5087607;28;20049;-71
2023/05/25 11:42:55;;;;;;;11.53;1.20;;;18.70;96.30;;;;;;5082639;28;20096;-72
2023/05/25 11:45:22;;;;;;;10.27;1.30;;;18.60;96.30;;;;;;5086172;28;20024;-72
2023/05/25 11:47:47;;;;;;;5.13;1.58;;;18.50;96.20;;;;;;5087040;28;20133;-72
2023/05/25 11:50:16;;;;;;;10.60;1.27;;;18.50;96.30;;;;;;5083166;28;20036;-72
2023/05/25 11:52:41;;;;;;;7.70;1.17;;;18.70;96.50;;;;;;5082309;28;20036;-71
2023/05/25 11:55:13;;;;;;;9.25;1.33;;;18.80;96.40;;;;;;5086790;28;20484;-71
2023/05/25 11:57:39;;;;;;;8.23;1.00;;;18.90;95.70;;;;;;5083633;28;20040;-72
2023/05/25 12:00:06;;;;;;;6.30;1.17;;;18.80;95.20;;;;;;5083215;28;20039;-74
2023/05/25 12:02:40;;;;;;;5.22;0.73;;;18.80;95.50;;;;;;5087903;28;20080;-72
2023/05/25 12:05:06;;;;;;;7.75;1.13;;;18.80;95.40;;;;;;5083415;28;20032;-71
2023/05/25 12:07:33;;;;;;;5.53;1.17;;;18.70;95.10;;;;;;5087287;28;20031;-71
2023/05/25 12:10:12;;;;;;;7.65;1.55;;;18.60;95.10;;;;;;5086888;28;20444;-72
2023/05/25 12:12:40;;;;;;;4.45;1.00;;;18.60;95.20;;;;;;5084621;28;20035;-72
2023/05/25 12:15:19;;;;;;;4.50;1.27;;;18.50;95.20;;;;;;5085836;28;20032;-73
2023/05/25 12:17:45;;;;;;;3.28;1.33;;;18.60;95.50;;;;;;5083703;28;20044;-72
2023/05/25 12:20:13;;;;;;;5.47;1.15;;;18.50;95.70;;;;;;5088645;28;20495;-71
2023/05/25 12:22:40;;;;;;;6.45;1.10;;;18.70;95.40;;;;;;5084448;28;20412;-71
2023/05/25 12:25:07;;;;;;;6.20;0.95;;;18.80;95.20;;;;;;5085119;28;20195;-71
2023/05/25 12:27:32;;;;;;;4.57;1.02;;;18.70;95.30;;;;;;5089429;28;20039;-71
2023/05/25 12:30:02;;;;;;;3.50;0.70;;;18.70;95.30;;;;;;5087504;28;20038;-71
2023/05/25 12:32:28;;;;;;;4.03;0.63;;;18.90;95.10;;;;;;5086338;28;20040;-71
2023/05/25 12:35:12;;;;;;;3.80;0.80;;;19.00;94.60;;;;;;5083180;28;20092;-71
2023/05/25 12:37:40;;;;;;;3.83;0.63;;;18.80;94.50;;;;;;5085103;28;20116;-71
2023/05/25 12:40:19;;;;;;;6.68;1.42;;;18.80;94.70;;;;;;5086696;28;20388;-72
2023/05/25 12:42:54;;;;;;;5.68;0.82;;;18.80;94.50;;;;;;5087012;28;20032;-72
2023/05/25 12:45:23;;;;;;;2.15;0.60;;;18.70;94.80;;;;;;5085162;28;20079;-72
2023/05/25 12:47:51;;;;;;;4.72;1.33;;;18.80;94.90;;;;;;5087592;28;20042;-72
2023/05/25 12:50:18;;;;;;;6.60;0.98;;;19.00;95.00;;;;;;5087838;28;20032;-71